sensor_id;sensor_type;location;lat;lon;timestamp;temperature;humidity
33761;DHT22;20084;47.912;19.044;2023-05-14T00:02:13;11.30;99.90
33761;DHT22;20084;47.912;19.044;2023-05-14T00:04:38;11.30;99.90
33761;DHT22;20084;47.912;19.044;2023-05-14T00:07:05;11.20;99.90
33761;DHT22;20084;47.912;19.044;2023-05-14T00:09:31;11.10;99.90
33761;DHT22;20084;47.912;19.044;2023-05-14T00:11:56;11.00;99.90
33761;DHT22;20084;47.912;19.044;2023-05-14T00:14:21;11.00;99.90
33761;DHT22;20084;47.912;19.044;2023-05-14T00:16:47;11.00;99.90
33761;DHT22;20084;47.912;19.044;2023-05-14T00:19:12;11.00;99.90
33761;DHT22;20084;47.912;19.044;2023-05-14T00:21:38;11.00;99.90
33761;DHT22;20084;47.912;19.044;2023-05-14T00:24:03;11.00;99.90
33761;DHT22;20084;47.912;19.044;2023-05-14T00:26:29;11.00;99.90
33761;DHT22;20084;47.912;19.044;2023-05-14T00:28:55;11.10;99.90
33761;DHT22;20084;47.912;19.044;2023-05-14T00:31:20;11.10;99.90
33761;DHT22;20084;47.912;19.044;2023-05-14T00:33:46;11.20;99.90
33761;DHT22;20084;47.912;19.044;2023-05-14T00:36:11;11.20;99.90
33761;DHT22;20084;47.912;19.044;2023-05-14T00:38:36;11.30;99.90
33761;DHT22;20084;47.912;19.044;2023-05-14T00:41:02;11.30;99.90
33761;DHT22;20084;47.912;19.044;2023-05-14T00:43:28;11.40;99.90
33761;DHT22;20084;47.912;19.044;2023-05-14T00:45:53;11.40;99.90
33761;DHT22;20084;47.912;19.044;2023-05-14T00:48:19;11.50;99.90
33761;DHT22;20084;47.912;19.044;2023-05-14T00:50:45;11.40;99.90
33761;DHT22;20084;47.912;19.044;2023-05-14T00:53:11;11.40;99.90
33761;DHT22;20084;47.912;19.044;2023-05-14T00:55:38;11.40;99.90
33761;DHT22;20084;47.912;19.044;2023-05-14T00:58:10;11.40;99.90
33761;DHT22;20084;47.912;19.044;2023-05-14T01:00:37;11.40;99.90
33761;DHT22;20084;47.912;19.044;2023-05-14T01:03:03;11.40;99.90
33761;DHT22;20084;47.912;19.044;2023-05-14T01:08:24;11.50;99.90
33761;DHT22;20084;47.912;19.044;2023-05-14T01:10:52;11.50;99.90
33761;DHT22;20084;47.912;19.044;2023-05-14T01:13:26;11.50;99.90
33761;DHT22;20084;47.912;19.044;2023-05-14T01:15:53;11.50;99.90
33761;DHT22;20084;47.912;19.044;2023-05-14T01:18:20;11.50;99.90
33761;DHT22;20084;47.912;19.044;2023-05-14T01:20:48;11.50;99.90
33761;DHT22;20084;47.912;19.044;2023-05-14T01:23:14;11.50;99.90
33761;DHT22;20084;47.912;19.044;2023-05-14T01:25:39;11.50;99.90
33761;DHT22;20084;47.912;19.044;2023-05-14T01:30:33;11.50;99.90
33761;DHT22;20084;47.912;19.044;2023-05-14T01:32:59;11.50;99.90
33761;DHT22;20084;47.912;19.044;2023-05-14T01:35:27;11.40;99.90
33761;DHT22;20084;47.912;19.044;2023-05-14T01:37:54;11.40;99.90
33761;DHT22;20084;47.912;19.044;2023-05-14T01:40:21;11.40;99.90
33761;DHT22;20084;47.912;19.044;2023-05-14T01:42:47;11.40;99.90
33761;DHT22;20084;47.912;19.044;2023-05-14T01:45:12;11.40;99.90
33761;DHT22;20084;47.912;19.044;2023-05-14T01:47:38;11.30;99.90
33761;DHT22;20084;47.912;19.044;2023-05-14T01:50:03;11.30;99.90
33761;DHT22;20084;47.912;19.044;2023-05-14T01:52:29;11.30;99.90
33761;DHT22;20084;47.912;19.044;2023-05-14T01:54:55;11.30;99.90
33761;DHT22;20084;47.912;19.044;2023-05-14T01:57:22;11.30;99.90
33761;DHT22;20084;47.912;19.044;2023-05-14T01:59:48;11.20;99.90
33761;DHT22;20084;47.912;19.044;2023-05-14T02:02:13;11.30;99.90
33761;DHT22;20084;47.912;19.044;2023-05-14T02:04:39;11.30;99.90
33761;DHT22;20084;47.912;19.044;2023-05-14T02:07:04;11.30;99.90
33761;DHT22;20084;47.912;19.044;2023-05-14T02:09:30;11.30;99.90
33761;DHT22;20084;47.912;19.044;2023-05-14T02:11:55;11.40;99.90
33761;DHT22;20084;47.912;19.044;2023-05-14T02:14:20;11.30;99.90
33761;DHT22;20084;47.912;19.044;2023-05-14T02:16:46;11.40;99.90
33761;DHT22;20084;47.912;19.044;2023-05-14T02:19:11;11.40;99.90
33761;DHT22;20084;47.912;19.044;2023-05-14T02:21:37;11.40;99.90
33761;DHT22;20084;47.912;19.044;2023-05-14T02:24:03;11.40;99.90
33761;DHT22;20084;47.912;19.044;2023-05-14T02:26:28;11.40;99.90
33761;DHT22;20084;47.912;19.044;2023-05-14T02:28:54;11.40;99.90
33761;DHT22;20084;47.912;19.044;2023-05-14T02:31:19;11.40;99.90
33761;DHT22;20084;47.912;19.044;2023-05-14T02:33:44;11.40;99.90
33761;DHT22;20084;47.912;19.044;2023-05-14T02:36:10;11.40;99.90
33761;DHT22;20084;47.912;19.044;2023-05-14T02:38:35;11.40;99.90
33761;DHT22;20084;47.912;19.044;2023-05-14T02:41:01;11.40;99.90
33761;DHT22;20084;47.912;19.044;2023-05-14T02:43:26;11.40;99.90
33761;DHT22;20084;47.912;19.044;2023-05-14T02:45:52;11.40;99.90
33761;DHT22;20084;47.912;19.044;2023-05-14T02:48:17;11.40;99.90
33761;DHT22;20084;47.912;19.044;2023-05-14T02:50:43;11.40;99.90
33761;DHT22;20084;47.912;19.044;2023-05-14T02:53:09;11.40;99.90
33761;DHT22;20084;47.912;19.044;2023-05-14T02:55:34;11.40;99.90
33761;DHT22;20084;47.912;19.044;2023-05-14T02:58:00;11.40;99.90
33761;DHT22;20084;47.912;19.044;2023-05-14T03:00:25;11.40;99.90
33761;DHT22;20084;47.912;19.044;2023-05-14T03:02:51;11.40;99.90
33761;DHT22;20084;47.912;19.044;2023-05-14T03:05:16;11.50;99.90
33761;DHT22;20084;47.912;19.044;2023-05-14T03:07:42;11.50;99.90
33761;DHT22;20084;47.912;19.044;2023-05-14T03:10:07;11.50;99.90
33761;DHT22;20084;47.912;19.044;2023-05-14T03:12:33;11.50;99.90
33761;DHT22;20084;47.912;19.044;2023-05-14T03:14:58;11.50;99.90
33761;DHT22;20084;47.912;19.044;2023-05-14T03:17:24;11.50;99.90
33761;DHT22;20084;47.912;19.044;2023-05-14T03:19:49;11.50;99.90
33761;DHT22;20084;47.912;19.044;2023-05-14T03:22:15;11.50;99.90
33761;DHT22;20084;47.912;19.044;2023-05-14T03:24:41;11.40;99.90
33761;DHT22;20084;47.912;19.044;2023-05-14T03:27:06;11.40;99.90
33761;DHT22;20084;47.912;19.044;2023-05-14T03:29:32;11.40;99.90
33761;DHT22;20084;47.912;19.044;2023-05-14T03:31:57;11.40;99.90
33761;DHT22;20084;47.912;19.044;2023-05-14T03:34:23;11.40;99.90
33761;DHT22;20084;47.912;19.044;2023-05-14T03:36:48;11.50;99.90
33761;DHT22;20084;47.912;19.044;2023-05-14T03:39:14;11.50;99.90
33761;DHT22;20084;47.912;19.044;2023-05-14T03:41:46;11.60;99.90
33761;DHT22;20084;47.912;19.044;2023-05-14T03:44:12;11.60;99.90
33761;DHT22;20084;47.912;19.044;2023-05-14T03:46:38;11.60;99.90
33761;DHT22;20084;47.912;19.044;2023-05-14T03:49:03;11.50;99.90
33761;DHT22;20084;47.912;19.044;2023-05-14T03:51:29;11.50;99.90
33761;DHT22;20084;47.912;19.044;2023-05-14T03:53:56;11.50;99.90
33761;DHT22;20084;47.912;19.044;2023-05-14T03:56:22;11.60;99.90
33761;DHT22;20084;47.912;19.044;2023-05-14T03:58:48;11.70;99.90
33761;DHT22;20084;47.912;19.044;2023-05-14T04:01:14;11.70;99.90
33761;DHT22;20084;47.912;19.044;2023-05-14T04:03:39;11.70;99.90
33761;DHT22;20084;47.912;19.044;2023-05-14T04:06:05;11.70;99.90
33761;DHT22;20084;47.912;19.044;2023-05-14T04:08:30;11.70;99.90
33761;DHT22;20084;47.912;19.044;2023-05-14T04:10:56;11.60;99.90
33761;DHT22;20084;47.912;19.044;2023-05-14T04:13:21;11.70;99.90
33761;DHT22;20084;47.912;19.044;2023-05-14T04:15:47;11.70;99.90
33761;DHT22;20084;47.912;19.044;2023-05-14T04:18:12;11.80;99.90
33761;DHT22;20084;47.912;19.044;2023-05-14T04:20:38;11.80;99.90
33761;DHT22;20084;47.912;19.044;2023-05-14T04:23:04;11.80;99.90
33761;DHT22;20084;47.912;19.044;2023-05-14T04:25:30;11.80;99.90
33761;DHT22;20084;47.912;19.044;2023-05-14T04:27:55;11.80;99.90
33761;DHT22;20084;47.912;19.044;2023-05-14T04:30:21;11.80;99.90
33761;DHT22;20084;47.912;19.044;2023-05-14T04:32:46;11.80;99.90
33761;DHT22;20084;47.912;19.044;2023-05-14T04:35:12;11.80;99.90
33761;DHT22;20084;47.912;19.044;2023-05-14T04:37:37;11.80;99.90
33761;DHT22;20084;47.912;19.044;2023-05-14T04:40:04;11.80;99.90
33761;DHT22;20084;47.912;19.044;2023-05-14T04:42:30;11.70;99.90
33761;DHT22;20084;47.912;19.044;2023-05-14T04:44:55;11.70;99.90
33761;DHT22;20084;47.912;19.044;2023-05-14T04:47:21;11.80;99.90
33761;DHT22;20084;47.912;19.044;2023-05-14T04:49:46;11.70;99.90
33761;DHT22;20084;47.912;19.044;2023-05-14T04:52:12;11.70;99.90
33761;DHT22;20084;47.912;19.044;2023-05-14T04:54:38;11.70;99.90
33761;DHT22;20084;47.912;19.044;2023-05-14T04:57:03;11.70;99.90
33761;DHT22;20084;47.912;19.044;2023-05-14T04:59:29;11.70;99.90
33761;DHT22;20084;47.912;19.044;2023-05-14T05:01:55;11.60;99.90
33761;DHT22;20084;47.912;19.044;2023-05-14T05:04:20;11.60;99.90
33761;DHT22;20084;47.912;19.044;2023-05-14T05:06:50;11.70;99.90
33761;DHT22;20084;47.912;19.044;2023-05-14T05:09:16;11.70;99.90
33761;DHT22;20084;47.912;19.044;2023-05-14T05:11:42;11.80;99.90
33761;DHT22;20084;47.912;19.044;2023-05-14T05:14:07;11.80;99.90
33761;DHT22;20084;47.912;19.044;2023-05-14T05:16:33;11.70;99.90
33761;DHT22;20084;47.912;19.044;2023-05-14T05:18:58;11.70;99.90
33761;DHT22;20084;47.912;19.044;2023-05-14T05:21:24;11.70;99.90
33761;DHT22;20084;47.912;19.044;2023-05-14T05:23:49;11.70;99.90
33761;DHT22;20084;47.912;19.044;2023-05-14T05:26:15;11.80;99.90
33761;DHT22;20084;47.912;19.044;2023-05-14T05:28:41;11.90;99.90
33761;DHT22;20084;47.912;19.044;2023-05-14T05:31:06;11.90;99.90
33761;DHT22;20084;47.912;19.044;2023-05-14T05:33:32;11.80;99.90
33761;DHT22;20084;47.912;19.044;2023-05-14T05:35:58;11.80;99.90
33761;DHT22;20084;47.912;19.044;2023-05-14T05:38:24;11.80;99.90
33761;DHT22;20084;47.912;19.044;2023-05-14T05:40:50;11.80;99.90
33761;DHT22;20084;47.912;19.044;2023-05-14T05:43:15;11.80;99.90
33761;DHT22;20084;47.912;19.044;2023-05-14T05:45:41;11.90;99.90
33761;DHT22;20084;47.912;19.044;2023-05-14T05:48:06;11.90;99.90
33761;DHT22;20084;47.912;19.044;2023-05-14T05:50:32;11.90;99.90
33761;DHT22;20084;47.912;19.044;2023-05-14T05:52:57;12.00;99.90
33761;DHT22;20084;47.912;19.044;2023-05-14T05:55:25;12.00;99.90
33761;DHT22;20084;47.912;19.044;2023-05-14T05:57:51;12.10;99.90
33761;DHT22;20084;47.912;19.044;2023-05-14T06:00:17;12.00;99.90
33761;DHT22;20084;47.912;19.044;2023-05-14T06:02:43;11.90;99.90
33761;DHT22;20084;47.912;19.044;2023-05-14T06:05:09;12.00;99.90
33761;DHT22;20084;47.912;19.044;2023-05-14T06:07:34;12.00;99.90
33761;DHT22;20084;47.912;19.044;2023-05-14T06:10:00;11.90;99.90
33761;DHT22;20084;47.912;19.044;2023-05-14T06:12:25;12.00;99.90
33761;DHT22;20084;47.912;19.044;2023-05-14T06:14:52;11.90;99.90
33761;DHT22;20084;47.912;19.044;2023-05-14T06:17:19;11.90;99.90
33761;DHT22;20084;47.912;19.044;2023-05-14T06:19:44;12.00;99.90
33761;DHT22;20084;47.912;19.044;2023-05-14T06:22:10;12.10;99.90
33761;DHT22;20084;47.912;19.044;2023-05-14T06:24:36;12.10;99.90
33761;DHT22;20084;47.912;19.044;2023-05-14T06:27:01;12.10;99.90
33761;DHT22;20084;47.912;19.044;2023-05-14T06:29:26;12.10;99.90
33761;DHT22;20084;47.912;19.044;2023-05-14T06:31:52;12.10;99.90
33761;DHT22;20084;47.912;19.044;2023-05-14T06:34:18;12.10;99.90
33761;DHT22;20084;47.912;19.044;2023-05-14T06:36:43;12.20;99.90
33761;DHT22;20084;47.912;19.044;2023-05-14T06:39:09;12.20;99.90
33761;DHT22;20084;47.912;19.044;2023-05-14T06:41:34;12.30;99.90
33761;DHT22;20084;47.912;19.044;2023-05-14T06:44:00;12.30;99.90
33761;DHT22;20084;47.912;19.044;2023-05-14T06:46:26;12.30;99.90
33761;DHT22;20084;47.912;19.044;2023-05-14T06:48:51;12.40;99.90
33761;DHT22;20084;47.912;19.044;2023-05-14T06:51:16;12.40;99.90
33761;DHT22;20084;47.912;19.044;2023-05-14T06:53:42;12.40;99.90
33761;DHT22;20084;47.912;19.044;2023-05-14T06:56:07;12.40;99.90
33761;DHT22;20084;47.912;19.044;2023-05-14T06:58:33;12.50;99.90
33761;DHT22;20084;47.912;19.044;2023-05-14T07:00:58;12.50;99.90
33761;DHT22;20084;47.912;19.044;2023-05-14T07:03:24;12.50;99.90
33761;DHT22;20084;47.912;19.044;2023-05-14T07:05:50;12.50;99.90
33761;DHT22;20084;47.912;19.044;2023-05-14T07:08:16;12.50;99.90
33761;DHT22;20084;47.912;19.044;2023-05-14T07:10:41;12.60;99.90
33761;DHT22;20084;47.912;19.044;2023-05-14T07:13:07;12.60;99.90
33761;DHT22;20084;47.912;19.044;2023-05-14T07:15:32;12.60;99.90
33761;DHT22;20084;47.912;19.044;2023-05-14T07:17:58;12.70;99.90
33761;DHT22;20084;47.912;19.044;2023-05-14T07:20:24;12.60;99.90
33761;DHT22;20084;47.912;19.044;2023-05-14T07:22:50;12.60;99.90
33761;DHT22;20084;47.912;19.044;2023-05-14T07:25:15;12.70;99.90
33761;DHT22;20084;47.912;19.044;2023-05-14T07:27:41;12.60;99.90
33761;DHT22;20084;47.912;19.044;2023-05-14T07:30:06;12.70;99.90
33761;DHT22;20084;47.912;19.044;2023-05-14T07:32:32;12.70;99.90
33761;DHT22;20084;47.912;19.044;2023-05-14T07:34:57;12.70;99.90
33761;DHT22;20084;47.912;19.044;2023-05-14T07:37:23;12.80;99.90
33761;DHT22;20084;47.912;19.044;2023-05-14T07:39:50;12.80;99.90
33761;DHT22;20084;47.912;19.044;2023-05-14T07:42:16;12.80;99.90
33761;DHT22;20084;47.912;19.044;2023-05-14T07:44:42;12.80;99.90
33761;DHT22;20084;47.912;19.044;2023-05-14T07:47:07;12.80;99.90
33761;DHT22;20084;47.912;19.044;2023-05-14T07:49:33;12.90;99.90
33761;DHT22;20084;47.912;19.044;2023-05-14T07:51:58;12.90;99.90
33761;DHT22;20084;47.912;19.044;2023-05-14T07:54:24;12.90;99.90
33761;DHT22;20084;47.912;19.044;2023-05-14T07:56:49;12.90;99.90
33761;DHT22;20084;47.912;19.044;2023-05-14T07:59:15;13.00;99.90
33761;DHT22;20084;47.912;19.044;2023-05-14T08:01:40;13.00;99.90
33761;DHT22;20084;47.912;19.044;2023-05-14T08:04:06;13.10;99.90
33761;DHT22;20084;47.912;19.044;2023-05-14T08:06:32;13.20;99.90
33761;DHT22;20084;47.912;19.044;2023-05-14T08:08:58;13.30;99.90
33761;DHT22;20084;47.912;19.044;2023-05-14T08:11:23;13.40;99.90
33761;DHT22;20084;47.912;19.044;2023-05-14T08:13:49;13.40;99.90
33761;DHT22;20084;47.912;19.044;2023-05-14T08:16:14;13.40;99.90
33761;DHT22;20084;47.912;19.044;2023-05-14T08:18:40;13.50;99.90
33761;DHT22;20084;47.912;19.044;2023-05-14T08:21:05;13.60;99.90
33761;DHT22;20084;47.912;19.044;2023-05-14T08:23:31;13.60;99.90
33761;DHT22;20084;47.912;19.044;2023-05-14T08:25:56;13.60;99.90
33761;DHT22;20084;47.912;19.044;2023-05-14T08:28:23;13.60;99.90
33761;DHT22;20084;47.912;19.044;2023-05-14T08:30:49;13.70;99.90
33761;DHT22;20084;47.912;19.044;2023-05-14T08:33:14;13.70;99.90
33761;DHT22;20084;47.912;19.044;2023-05-14T08:35:40;13.70;99.90
33761;DHT22;20084;47.912;19.044;2023-05-14T08:38:05;13.80;99.90
33761;DHT22;20084;47.912;19.044;2023-05-14T08:40:31;13.80;99.90
33761;DHT22;20084;47.912;19.044;2023-05-14T08:42:56;13.80;99.90
33761;DHT22;20084;47.912;19.044;2023-05-14T08:45:23;13.80;99.90
33761;DHT22;20084;47.912;19.044;2023-05-14T08:47:50;13.90;99.90
33761;DHT22;20084;47.912;19.044;2023-05-14T08:50:17;13.90;99.90
33761;DHT22;20084;47.912;19.044;2023-05-14T08:52:44;14.00;99.90
33761;DHT22;20084;47.912;19.044;2023-05-14T08:55:10;14.00;99.90
33761;DHT22;20084;47.912;19.044;2023-05-14T08:57:36;14.10;99.90
33761;DHT22;20084;47.912;19.044;2023-05-14T09:00:02;14.20;99.90
33761;DHT22;20084;47.912;19.044;2023-05-14T09:02:33;14.30;99.90
33761;DHT22;20084;47.912;19.044;2023-05-14T09:04:59;14.30;99.90
33761;DHT22;20084;47.912;19.044;2023-05-14T09:07:25;14.30;99.90
33761;DHT22;20084;47.912;19.044;2023-05-14T09:09:51;14.40;99.90
33761;DHT22;20084;47.912;19.044;2023-05-14T09:12:16;14.40;99.90
33761;DHT22;20084;47.912;19.044;2023-05-14T09:14:42;14.50;99.90
33761;DHT22;20084;47.912;19.044;2023-05-14T09:17:08;14.50;99.90
33761;DHT22;20084;47.912;19.044;2023-05-14T09:19:33;14.50;99.90
33761;DHT22;20084;47.912;19.044;2023-05-14T09:21:59;14.60;99.90
33761;DHT22;20084;47.912;19.044;2023-05-14T09:24:25;14.60;99.90
33761;DHT22;20084;47.912;19.044;2023-05-14T09:26:52;14.60;99.90
33761;DHT22;20084;47.912;19.044;2023-05-14T09:29:18;14.60;99.90
33761;DHT22;20084;47.912;19.044;2023-05-14T09:31:43;14.60;99.90
33761;DHT22;20084;47.912;19.044;2023-05-14T09:34:09;14.60;99.90
33761;DHT22;20084;47.912;19.044;2023-05-14T09:36:35;14.60;99.90
33761;DHT22;20084;47.912;19.044;2023-05-14T09:39:02;14.60;99.90
33761;DHT22;20084;47.912;19.044;2023-05-14T09:41:28;14.60;99.90
33761;DHT22;20084;47.912;19.044;2023-05-14T09:43:53;14.60;99.90
33761;DHT22;20084;47.912;19.044;2023-05-14T09:46:21;14.50;99.90
33761;DHT22;20084;47.912;19.044;2023-05-14T09:48:46;14.50;99.90
33761;DHT22;20084;47.912;19.044;2023-05-14T09:51:12;14.60;99.90
33761;DHT22;20084;47.912;19.044;2023-05-14T09:53:37;14.60;99.90
33761;DHT22;20084;47.912;19.044;2023-05-14T09:56:05;14.60;99.90
33761;DHT22;20084;47.912;19.044;2023-05-14T09:58:31;14.70;99.90
33761;DHT22;20084;47.912;19.044;2023-05-14T10:00:56;14.70;99.90
33761;DHT22;20084;47.912;19.044;2023-05-14T10:03:24;14.70;99.90
33761;DHT22;20084;47.912;19.044;2023-05-14T10:05:49;14.70;99.90
33761;DHT22;20084;47.912;19.044;2023-05-14T10:10:41;14.80;99.90
33761;DHT22;20084;47.912;19.044;2023-05-14T10:13:08;14.80;99.90
33761;DHT22;20084;47.912;19.044;2023-05-14T10:15:36;14.80;99.90
33761;DHT22;20084;47.912;19.044;2023-05-14T10:18:07;14.70;99.90
33761;DHT22;20084;47.912;19.044;2023-05-14T10:20:33;14.70;99.90
33761;DHT22;20084;47.912;19.044;2023-05-14T10:23:00;14.70;99.90
33761;DHT22;20084;47.912;19.044;2023-05-14T10:25:26;14.70;99.90
33761;DHT22;20084;47.912;19.044;2023-05-14T10:27:52;14.70;99.90
33761;DHT22;20084;47.912;19.044;2023-05-14T10:30:19;14.70;99.90
33761;DHT22;20084;47.912;19.044;2023-05-14T10:32:45;14.70;99.90
33761;DHT22;20084;47.912;19.044;2023-05-14T10:35:14;14.70;99.90
33761;DHT22;20084;47.912;19.044;2023-05-14T10:37:40;14.80;99.90
33761;DHT22;20084;47.912;19.044;2023-05-14T10:40:06;14.80;99.90
33761;DHT22;20084;47.912;19.044;2023-05-14T10:42:35;14.90;99.90
33761;DHT22;20084;47.912;19.044;2023-05-14T10:47:32;14.90;99.90
33761;DHT22;20084;47.912;19.044;2023-05-14T10:49:58;15.00;99.90
33761;DHT22;20084;47.912;19.044;2023-05-14T10:52:24;15.00;99.90
33761;DHT22;20084;47.912;19.044;2023-05-14T10:57:16;15.00;99.90
33761;DHT22;20084;47.912;19.044;2023-05-14T10:59:42;15.00;99.90
33761;DHT22;20084;47.912;19.044;2023-05-14T11:05:04;15.00;99.90
33761;DHT22;20084;47.912;19.044;2023-05-14T11:09:59;15.00;99.90
33761;DHT22;20084;47.912;19.044;2023-05-14T11:12:26;15.00;99.90
33761;DHT22;20084;47.912;19.044;2023-05-14T11:14:52;15.00;99.90
33761;DHT22;20084;47.912;19.044;2023-05-14T11:17:17;15.00;99.90
33761;DHT22;20084;47.912;19.044;2023-05-14T11:19:43;15.00;99.90
33761;DHT22;20084;47.912;19.044;2023-05-14T11:22:10;15.00;99.90
33761;DHT22;20084;47.912;19.044;2023-05-14T11:24:38;15.00;99.90
33761;DHT22;20084;47.912;19.044;2023-05-14T11:27:06;15.00;99.90
33761;DHT22;20084;47.912;19.044;2023-05-14T11:29:32;15.00;99.90
33761;DHT22;20084;47.912;19.044;2023-05-14T11:31:58;15.00;99.90
33761;DHT22;20084;47.912;19.044;2023-05-14T11:34:23;15.00;99.90
33761;DHT22;20084;47.912;19.044;2023-05-14T11:36:48;15.10;99.90
33761;DHT22;20084;47.912;19.044;2023-05-14T11:39:17;15.00;99.90
33761;DHT22;20084;47.912;19.044;2023-05-14T11:41:44;15.10;99.90
33761;DHT22;20084;47.912;19.044;2023-05-14T11:44:10;15.10;99.90
33761;DHT22;20084;47.912;19.044;2023-05-14T11:46:35;15.10;99.90
33761;DHT22;20084;47.912;19.044;2023-05-14T11:49:04;15.10;99.90
33761;DHT22;20084;47.912;19.044;2023-05-14T11:51:29;15.10;99.90
33761;DHT22;20084;47.912;19.044;2023-05-14T11:53:56;15.10;99.90
33761;DHT22;20084;47.912;19.044;2023-05-14T11:56:23;15.10;99.90
33761;DHT22;20084;47.912;19.044;2023-05-14T11:58:48;15.10;99.90
33761;DHT22;20084;47.912;19.044;2023-05-14T12:01:14;15.10;99.90
33761;DHT22;20084;47.912;19.044;2023-05-14T12:03:40;15.10;99.90
33761;DHT22;20084;47.912;19.044;2023-05-14T12:06:05;15.10;99.90
33761;DHT22;20084;47.912;19.044;2023-05-14T12:08:32;15.10;99.90
33761;DHT22;20084;47.912;19.044;2023-05-14T12:10:58;15.10;99.90
33761;DHT22;20084;47.912;19.044;2023-05-14T12:13:31;15.10;99.90
33761;DHT22;20084;47.912;19.044;2023-05-14T12:15:57;15.10;99.90
33761;DHT22;20084;47.912;19.044;2023-05-14T12:18:24;15.10;99.90
33761;DHT22;20084;47.912;19.044;2023-05-14T12:20:49;15.10;99.90
33761;DHT22;20084;47.912;19.044;2023-05-14T12:23:16;15.10;99.90
33761;DHT22;20084;47.912;19.044;2023-05-14T12:25:49;15.10;99.90
33761;DHT22;20084;47.912;19.044;2023-05-14T12:28:15;15.10;99.90
33761;DHT22;20084;47.912;19.044;2023-05-14T12:30:41;15.10;99.90
33761;DHT22;20084;47.912;19.044;2023-05-14T12:33:07;15.10;99.90
33761;DHT22;20084;47.912;19.044;2023-05-14T12:35:32;15.10;99.90
33761;DHT22;20084;47.912;19.044;2023-05-14T12:37:58;15.10;99.90
33761;DHT22;20084;47.912;19.044;2023-05-14T12:40:23;15.10;99.90
33761;DHT22;20084;47.912;19.044;2023-05-14T12:42:49;15.10;99.90
33761;DHT22;20084;47.912;19.044;2023-05-14T12:45:14;15.10;99.90
33761;DHT22;20084;47.912;19.044;2023-05-14T12:47:40;15.10;99.90
33761;DHT22;20084;47.912;19.044;2023-05-14T12:50:05;15.10;99.90
33761;DHT22;20084;47.912;19.044;2023-05-14T12:52:31;15.10;99.90
33761;DHT22;20084;47.912;19.044;2023-05-14T12:54:57;15.10;99.90
33761;DHT22;20084;47.912;19.044;2023-05-14T12:57:22;15.10;99.90
33761;DHT22;20084;47.912;19.044;2023-05-14T12:59:48;15.10;99.90
33761;DHT22;20084;47.912;19.044;2023-05-14T13:02:13;15.10;99.90
33761;DHT22;20084;47.912;19.044;2023-05-14T13:04:39;15.10;99.90
33761;DHT22;20084;47.912;19.044;2023-05-14T13:07:05;15.20;99.90
33761;DHT22;20084;47.912;19.044;2023-05-14T13:09:33;15.10;99.90
33761;DHT22;20084;47.912;19.044;2023-05-14T13:11:58;15.20;99.90
33761;DHT22;20084;47.912;19.044;2023-05-14T13:14:24;15.20;99.90
33761;DHT22;20084;47.912;19.044;2023-05-14T13:16:49;15.20;99.90
33761;DHT22;20084;47.912;19.044;2023-05-14T13:19:15;15.20;99.90
33761;DHT22;20084;47.912;19.044;2023-05-14T13:21:40;15.20;99.90
33761;DHT22;20084;47.912;19.044;2023-05-14T13:24:06;15.20;99.90
33761;DHT22;20084;47.912;19.044;2023-05-14T13:26:34;15.20;99.90
33761;DHT22;20084;47.912;19.044;2023-05-14T13:29:00;15.20;99.90
33761;DHT22;20084;47.912;19.044;2023-05-14T13:31:26;15.10;99.90
33761;DHT22;20084;47.912;19.044;2023-05-14T13:33:51;15.10;99.90
33761;DHT22;20084;47.912;19.044;2023-05-14T13:36:17;15.10;99.90
33761;DHT22;20084;47.912;19.044;2023-05-14T13:38:42;15.10;99.90
33761;DHT22;20084;47.912;19.044;2023-05-14T13:41:10;15.10;99.90
33761;DHT22;20084;47.912;19.044;2023-05-14T13:43:35;15.00;99.90
33761;DHT22;20084;47.912;19.044;2023-05-14T13:46:01;15.00;99.90
33761;DHT22;20084;47.912;19.044;2023-05-14T13:48:27;15.10;99.90
33761;DHT22;20084;47.912;19.044;2023-05-14T13:50:53;15.00;99.90
33761;DHT22;20084;47.912;19.044;2023-05-14T13:53:19;15.00;99.90
33761;DHT22;20084;47.912;19.044;2023-05-14T13:55:45;15.00;99.90
33761;DHT22;20084;47.912;19.044;2023-05-14T13:58:10;15.00;99.90
33761;DHT22;20084;47.912;19.044;2023-05-14T14:00:36;14.90;99.90
33761;DHT22;20084;47.912;19.044;2023-05-14T14:03:01;14.90;99.90
33761;DHT22;20084;47.912;19.044;2023-05-14T14:05:27;14.80;99.90
33761;DHT22;20084;47.912;19.044;2023-05-14T14:07:54;14.80;99.90
33761;DHT22;20084;47.912;19.044;2023-05-14T14:10:20;14.80;99.90
33761;DHT22;20084;47.912;19.044;2023-05-14T14:12:45;14.80;99.90
33761;DHT22;20084;47.912;19.044;2023-05-14T14:15:11;14.80;99.90
33761;DHT22;20084;47.912;19.044;2023-05-14T14:17:37;14.80;99.90
33761;DHT22;20084;47.912;19.044;2023-05-14T14:20:03;14.80;99.90
33761;DHT22;20084;47.912;19.044;2023-05-14T14:22:30;14.80;99.90
33761;DHT22;20084;47.912;19.044;2023-05-14T14:24:56;14.80;99.90
33761;DHT22;20084;47.912;19.044;2023-05-14T14:27:21;14.70;99.90
33761;DHT22;20084;47.912;19.044;2023-05-14T14:29:47;14.70;99.90
33761;DHT22;20084;47.912;19.044;2023-05-14T14:32:12;14.70;99.90
33761;DHT22;20084;47.912;19.044;2023-05-14T14:34:38;14.70;99.90
33761;DHT22;20084;47.912;19.044;2023-05-14T14:37:03;14.70;99.90
33761;DHT22;20084;47.912;19.044;2023-05-14T14:39:29;14.70;99.90
33761;DHT22;20084;47.912;19.044;2023-05-14T14:41:54;14.60;99.90
33761;DHT22;20084;47.912;19.044;2023-05-14T14:44:20;14.60;99.90
33761;DHT22;20084;47.912;19.044;2023-05-14T14:46:45;14.70;99.90
33761;DHT22;20084;47.912;19.044;2023-05-14T14:49:11;14.70;99.90
33761;DHT22;20084;47.912;19.044;2023-05-14T14:51:37;14.70;99.90
33761;DHT22;20084;47.912;19.044;2023-05-14T14:54:02;14.70;99.90
33761;DHT22;20084;47.912;19.044;2023-05-14T14:56:29;14.70;99.90
33761;DHT22;20084;47.912;19.044;2023-05-14T14:58:54;14.70;99.90
33761;DHT22;20084;47.912;19.044;2023-05-14T15:01:20;14.70;99.90
33761;DHT22;20084;47.912;19.044;2023-05-14T15:03:47;14.70;99.90
33761;DHT22;20084;47.912;19.044;2023-05-14T15:06:12;14.70;99.90
33761;DHT22;20084;47.912;19.044;2023-05-14T15:08:38;14.70;99.90
33761;DHT22;20084;47.912;19.044;2023-05-14T15:11:04;14.70;99.90
33761;DHT22;20084;47.912;19.044;2023-05-14T15:13:30;14.70;99.90
33761;DHT22;20084;47.912;19.044;2023-05-14T15:15:56;14.70;99.90
33761;DHT22;20084;47.912;19.044;2023-05-14T15:18:22;14.70;99.90
33761;DHT22;20084;47.912;19.044;2023-05-14T15:20:47;14.70;99.90
33761;DHT22;20084;47.912;19.044;2023-05-14T15:23:13;14.70;99.90
33761;DHT22;20084;47.912;19.044;2023-05-14T15:25:38;14.70;99.90